sensor_id;sensor_type;location;lat;lon;timestamp;P1;durP1;ratioP1;P2;durP2;ratioP2
7398;SDS011;3740;50.700;7.184;2023-04-30T00:01:43;29.90;;;26.97;;
7398;SDS011;3740;50.700;7.184;2023-04-30T00:04:09;30.70;;;27.80;;
7398;SDS011;3740;50.700;7.184;2023-04-30T00:06:34;30.20;;;27.30;;
7398;SDS011;3740;50.700;7.184;2023-04-30T00:09:00;30.37;;;27.43;;
7398;SDS011;3740;50.700;7.184;2023-04-30T00:11:25;31.33;;;28.33;;
7398;SDS011;3740;50.700;7.184;2023-04-30T00:13:51;30.60;;;27.80;;
7398;SDS011;3740;50.700;7.184;2023-04-30T00:16:17;29.53;;;26.80;;
7398;SDS011;3740;50.700;7.184;2023-04-30T00:18:43;30.00;;;27.20;;
7398;SDS011;3740;50.700;7.184;2023-04-30T00:21:08;30.27;;;27.37;;
7398;SDS011;3740;50.700;7.184;2023-04-30T00:23:34;32.20;;;29.13;;
7398;SDS011;3740;50.700;7.184;2023-04-30T00:26:00;33.17;;;30.00;;
7398;SDS011;3740;50.700;7.184;2023-04-30T00:28:25;31.63;;;28.73;;
7398;SDS011;3740;50.700;7.184;2023-04-30T00:30:51;31.43;;;28.37;;
7398;SDS011;3740;50.700;7.184;2023-04-30T00:33:17;33.00;;;30.00;;
7398;SDS011;3740;50.700;7.184;2023-04-30T00:35:42;33.77;;;30.37;;
7398;SDS011;3740;50.700;7.184;2023-04-30T00:38:08;34.33;;;30.90;;
7398;SDS011;3740;50.700;7.184;2023-04-30T00:40:34;32.67;;;29.50;;
7398;SDS011;3740;50.700;7.184;2023-04-30T00:43:00;33.53;;;30.37;;
7398;SDS011;3740;50.700;7.184;2023-04-30T00:45:25;33.77;;;30.67;;
7398;SDS011;3740;50.700;7.184;2023-04-30T00:47:51;35.17;;;31.73;;
7398;SDS011;3740;50.700;7.184;2023-04-30T00:50:16;34.27;;;30.97;;
7398;SDS011;3740;50.700;7.184;2023-04-30T00:52:42;35.27;;;31.60;;
7398;SDS011;3740;50.700;7.184;2023-04-30T00:55:09;35.80;;;32.30;;
7398;SDS011;3740;50.700;7.184;2023-04-30T00:57:35;36.10;;;32.50;;
7398;SDS011;3740;50.700;7.184;2023-04-30T01:00:03;36.00;;;32.50;;
7398;SDS011;3740;50.700;7.184;2023-04-30T01:02:30;37.10;;;33.50;;
7398;SDS011;3740;50.700;7.184;2023-04-30T01:04:56;37.30;;;33.60;;
7398;SDS011;3740;50.700;7.184;2023-04-30T01:07:22;34.37;;;30.93;;
7398;SDS011;3740;50.700;7.184;2023-04-30T01:09:49;36.00;;;32.47;;
7398;SDS011;3740;50.700;7.184;2023-04-30T01:14:56;35.07;;;31.70;;
7398;SDS011;3740;50.700;7.184;2023-04-30T01:17:40;38.00;;;34.20;;
7398;SDS011;3740;50.700;7.184;2023-04-30T01:20:17;39.47;;;35.43;;
7398;SDS011;3740;50.700;7.184;2023-04-30T01:25:53;38.13;;;34.33;;
7398;SDS011;3740;50.700;7.184;2023-04-30T01:28:46;41.23;;;37.03;;
7398;SDS011;3740;50.700;7.184;2023-04-30T01:31:19;37.93;;;34.13;;
7398;SDS011;3740;50.700;7.184;2023-04-30T01:33:44;39.23;;;35.33;;
7398;SDS011;3740;50.700;7.184;2023-04-30T01:46:53;42.60;;;38.20;;
7398;SDS011;3740;50.700;7.184;2023-04-30T01:55:10;43.03;;;38.67;;
7398;SDS011;3740;50.700;7.184;2023-04-30T01:57:43;44.63;;;40.07;;
7398;SDS011;3740;50.700;7.184;2023-04-30T02:00:20;45.43;;;40.73;;
7398;SDS011;3740;50.700;7.184;2023-04-30T02:02:45;46.50;;;41.50;;
7398;SDS011;3740;50.700;7.184;2023-04-30T02:05:11;45.33;;;40.63;;
7398;SDS011;3740;50.700;7.184;2023-04-30T02:07:40;44.90;;;40.27;;
7398;SDS011;3740;50.700;7.184;2023-04-30T02:10:08;44.37;;;39.87;;
7398;SDS011;3740;50.700;7.184;2023-04-30T02:12:35;44.73;;;40.00;;
7398;SDS011;3740;50.700;7.184;2023-04-30T02:15:02;43.43;;;39.13;;
7398;SDS011;3740;50.700;7.184;2023-04-30T02:17:28;43.27;;;38.70;;
7398;SDS011;3740;50.700;7.184;2023-04-30T02:19:54;44.87;;;40.40;;
7398;SDS011;3740;50.700;7.184;2023-04-30T02:22:19;44.87;;;40.17;;
7398;SDS011;3740;50.700;7.184;2023-04-30T02:24:45;43.67;;;39.27;;
7398;SDS011;3740;50.700;7.184;2023-04-30T02:27:10;44.83;;;40.33;;
7398;SDS011;3740;50.700;7.184;2023-04-30T02:29:36;42.40;;;38.07;;
7398;SDS011;3740;50.700;7.184;2023-04-30T02:32:01;43.77;;;39.20;;
7398;SDS011;3740;50.700;7.184;2023-04-30T02:34:27;44.83;;;40.23;;
7398;SDS011;3740;50.700;7.184;2023-04-30T02:36:53;43.60;;;39.13;;
7398;SDS011;3740;50.700;7.184;2023-04-30T02:39:18;44.47;;;39.87;;
7398;SDS011;3740;50.700;7.184;2023-04-30T02:41:44;42.27;;;38.00;;
7398;SDS011;3740;50.700;7.184;2023-04-30T02:44:10;42.83;;;38.60;;
7398;SDS011;3740;50.700;7.184;2023-04-30T02:46:35;42.30;;;38.10;;
7398;SDS011;3740;50.700;7.184;2023-04-30T02:49:01;40.20;;;36.13;;
7398;SDS011;3740;50.700;7.184;2023-04-30T02:51:26;42.20;;;37.93;;
7398;SDS011;3740;50.700;7.184;2023-04-30T02:53:52;40.87;;;36.70;;
7398;SDS011;3740;50.700;7.184;2023-04-30T02:56:18;42.13;;;37.73;;
7398;SDS011;3740;50.700;7.184;2023-04-30T02:58:44;41.73;;;37.60;;
7398;SDS011;3740;50.700;7.184;2023-04-30T03:01:09;43.80;;;39.20;;
7398;SDS011;3740;50.700;7.184;2023-04-30T03:03:35;45.33;;;40.57;;
7398;SDS011;3740;50.700;7.184;2023-04-30T03:06:00;45.23;;;40.40;;
7398;SDS011;3740;50.700;7.184;2023-04-30T03:08:26;44.50;;;39.70;;
7398;SDS011;3740;50.700;7.184;2023-04-30T03:10:52;46.23;;;41.33;;
7398;SDS011;3740;50.700;7.184;2023-04-30T03:13:17;45.70;;;40.73;;
7398;SDS011;3740;50.700;7.184;2023-04-30T03:15:43;45.83;;;41.03;;
7398;SDS011;3740;50.700;7.184;2023-04-30T03:18:09;43.80;;;39.30;;
7398;SDS011;3740;50.700;7.184;2023-04-30T03:20:35;43.97;;;39.37;;
7398;SDS011;3740;50.700;7.184;2023-04-30T03:23:00;42.93;;;38.70;;
7398;SDS011;3740;50.700;7.184;2023-04-30T03:25:26;42.03;;;37.70;;
7398;SDS011;3740;50.700;7.184;2023-04-30T03:27:51;43.33;;;38.73;;
7398;SDS011;3740;50.700;7.184;2023-04-30T03:30:17;46.90;;;41.77;;
7398;SDS011;3740;50.700;7.184;2023-04-30T03:32:42;46.73;;;41.87;;
7398;SDS011;3740;50.700;7.184;2023-04-30T03:35:08;45.87;;;41.17;;
7398;SDS011;3740;50.700;7.184;2023-04-30T03:37:34;45.53;;;40.80;;
7398;SDS011;3740;50.700;7.184;2023-04-30T03:40:00;45.57;;;41.07;;
7398;SDS011;3740;50.700;7.184;2023-04-30T03:42:25;44.87;;;40.27;;
7398;SDS011;3740;50.700;7.184;2023-04-30T03:44:51;47.40;;;42.37;;
7398;SDS011;3740;50.700;7.184;2023-04-30T03:47:16;45.60;;;40.83;;
7398;SDS011;3740;50.700;7.184;2023-04-30T03:49:42;43.33;;;38.87;;
7398;SDS011;3740;50.700;7.184;2023-04-30T03:52:08;44.07;;;39.43;;
7398;SDS011;3740;50.700;7.184;2023-04-30T03:54:33;44.13;;;39.73;;
7398;SDS011;3740;50.700;7.184;2023-04-30T03:56:59;46.60;;;41.80;;
7398;SDS011;3740;50.700;7.184;2023-04-30T03:59:27;43.37;;;38.87;;
7398;SDS011;3740;50.700;7.184;2023-04-30T04:01:53;42.60;;;38.30;;
7398;SDS011;3740;50.700;7.184;2023-04-30T04:04:19;43.20;;;38.80;;
7398;SDS011;3740;50.700;7.184;2023-04-30T04:06:45;43.37;;;38.83;;
7398;SDS011;3740;50.700;7.184;2023-04-30T04:09:10;45.67;;;40.97;;
7398;SDS011;3740;50.700;7.184;2023-04-30T04:11:36;43.23;;;38.83;;
7398;SDS011;3740;50.700;7.184;2023-04-30T04:14:01;45.87;;;40.73;;
7398;SDS011;3740;50.700;7.184;2023-04-30T04:16:27;44.83;;;40.03;;
7398;SDS011;3740;50.700;7.184;2023-04-30T04:18:52;46.17;;;41.23;;
7398;SDS011;3740;50.700;7.184;2023-04-30T04:21:18;48.93;;;42.93;;
7398;SDS011;3740;50.700;7.184;2023-04-30T04:23:44;47.97;;;42.73;;
7398;SDS011;3740;50.700;7.184;2023-04-30T04:26:09;47.03;;;41.93;;
7398;SDS011;3740;50.700;7.184;2023-04-30T04:28:35;47.53;;;42.40;;
7398;SDS011;3740;50.700;7.184;2023-04-30T04:31:00;48.77;;;43.47;;
7398;SDS011;3740;50.700;7.184;2023-04-30T04:33:27;51.97;;;46.40;;
7398;SDS011;3740;50.700;7.184;2023-04-30T04:35:53;58.47;;;48.83;;
7398;SDS011;3740;50.700;7.184;2023-04-30T04:38:18;53.10;;;47.43;;
7398;SDS011;3740;50.700;7.184;2023-04-30T04:40:54;54.07;;;48.00;;
7398;SDS011;3740;50.700;7.184;2023-04-30T04:43:20;53.57;;;47.00;;
7398;SDS011;3740;50.700;7.184;2023-04-30T04:45:46;53.00;;;46.33;;
7398;SDS011;3740;50.700;7.184;2023-04-30T04:48:12;50.80;;;45.30;;
7398;SDS011;3740;50.700;7.184;2023-04-30T04:50:38;49.70;;;44.30;;
7398;SDS011;3740;50.700;7.184;2023-04-30T04:53:03;51.27;;;44.87;;
7398;SDS011;3740;50.700;7.184;2023-04-30T04:55:29;53.93;;;46.37;;
7398;SDS011;3740;50.700;7.184;2023-04-30T04:57:55;52.40;;;45.40;;
7398;SDS011;3740;50.700;7.184;2023-04-30T05:00:21;50.40;;;44.83;;
7398;SDS011;3740;50.700;7.184;2023-04-30T05:02:47;52.47;;;46.67;;
7398;SDS011;3740;50.700;7.184;2023-04-30T05:05:14;53.27;;;46.03;;
7398;SDS011;3740;50.700;7.184;2023-04-30T05:07:39;52.87;;;46.67;;
7398;SDS011;3740;50.700;7.184;2023-04-30T05:10:05;49.13;;;43.90;;
7398;SDS011;3740;50.700;7.184;2023-04-30T05:12:32;49.87;;;44.57;;
7398;SDS011;3740;50.700;7.184;2023-04-30T05:14:57;50.20;;;44.77;;
7398;SDS011;3740;50.700;7.184;2023-04-30T05:17:23;51.83;;;46.23;;
7398;SDS011;3740;50.700;7.184;2023-04-30T05:19:48;49.33;;;43.97;;
7398;SDS011;3740;50.700;7.184;2023-04-30T05:22:15;49.83;;;43.77;;
7398;SDS011;3740;50.700;7.184;2023-04-30T05:24:41;49.83;;;44.63;;
7398;SDS011;3740;50.700;7.184;2023-04-30T05:27:06;48.43;;;43.23;;
7398;SDS011;3740;50.700;7.184;2023-04-30T05:29:32;49.60;;;44.20;;
7398;SDS011;3740;50.700;7.184;2023-04-30T05:31:58;48.00;;;42.83;;
7398;SDS011;3740;50.700;7.184;2023-04-30T05:34:24;49.00;;;43.80;;
7398;SDS011;3740;50.700;7.184;2023-04-30T05:36:49;47.93;;;42.93;;
7398;SDS011;3740;50.700;7.184;2023-04-30T05:39:15;51.43;;;45.80;;
7398;SDS011;3740;50.700;7.184;2023-04-30T05:41:41;50.97;;;45.37;;
7398;SDS011;3740;50.700;7.184;2023-04-30T05:44:06;55.80;;;48.97;;
7398;SDS011;3740;50.700;7.184;2023-04-30T05:46:32;49.20;;;43.53;;
7398;SDS011;3740;50.700;7.184;2023-04-30T05:48:59;48.83;;;43.00;;
7398;SDS011;3740;50.700;7.184;2023-04-30T05:51:25;49.47;;;44.07;;
7398;SDS011;3740;50.700;7.184;2023-04-30T05:53:52;51.77;;;46.20;;
7398;SDS011;3740;50.700;7.184;2023-04-30T05:56:17;52.87;;;45.73;;
7398;SDS011;3740;50.700;7.184;2023-04-30T05:58:43;52.13;;;46.50;;
7398;SDS011;3740;50.700;7.184;2023-04-30T06:01:08;54.43;;;46.13;;
7398;SDS011;3740;50.700;7.184;2023-04-30T06:03:35;53.27;;;46.83;;
7398;SDS011;3740;50.700;7.184;2023-04-30T06:06:01;54.87;;;47.40;;
7398;SDS011;3740;50.700;7.184;2023-04-30T06:08:27;54.83;;;47.73;;
7398;SDS011;3740;50.700;7.184;2023-04-30T06:10:53;55.97;;;47.93;;
7398;SDS011;3740;50.700;7.184;2023-04-30T06:13:19;55.93;;;47.97;;
7398;SDS011;3740;50.700;7.184;2023-04-30T06:15:45;58.67;;;49.90;;
7398;SDS011;3740;50.700;7.184;2023-04-30T06:18:11;54.77;;;46.77;;
7398;SDS011;3740;50.700;7.184;2023-04-30T06:20:38;54.53;;;46.63;;
7398;SDS011;3740;50.700;7.184;2023-04-30T06:23:03;54.93;;;47.50;;
7398;SDS011;3740;50.700;7.184;2023-04-30T06:25:29;58.47;;;47.83;;
7398;SDS011;3740;50.700;7.184;2023-04-30T06:27:55;54.13;;;46.93;;
7398;SDS011;3740;50.700;7.184;2023-04-30T06:30:20;51.67;;;45.43;;
7398;SDS011;3740;50.700;7.184;2023-04-30T06:32:46;56.23;;;47.40;;
7398;SDS011;3740;50.700;7.184;2023-04-30T06:35:11;52.07;;;45.17;;
7398;SDS011;3740;50.700;7.184;2023-04-30T06:37:37;54.03;;;45.13;;
7398;SDS011;3740;50.700;7.184;2023-04-30T06:40:03;48.90;;;43.60;;
7398;SDS011;3740;50.700;7.184;2023-04-30T06:42:30;52.10;;;45.63;;
7398;SDS011;3740;50.700;7.184;2023-04-30T06:44:59;52.10;;;46.07;;
7398;SDS011;3740;50.700;7.184;2023-04-30T06:47:26;51.40;;;45.60;;
7398;SDS011;3740;50.700;7.184;2023-04-30T06:49:52;53.67;;;47.47;;
7398;SDS011;3740;50.700;7.184;2023-04-30T06:52:18;51.43;;;44.43;;
7398;SDS011;3740;50.700;7.184;2023-04-30T06:54:43;50.47;;;43.80;;
7398;SDS011;3740;50.700;7.184;2023-04-30T06:57:09;44.27;;;39.57;;
7398;SDS011;3740;50.700;7.184;2023-04-30T06:59:34;44.27;;;39.30;;
7398;SDS011;3740;50.700;7.184;2023-04-30T07:02:00;45.10;;;40.20;;
7398;SDS011;3740;50.700;7.184;2023-04-30T07:04:25;43.33;;;38.80;;
7398;SDS011;3740;50.700;7.184;2023-04-30T07:06:51;45.53;;;40.23;;
7398;SDS011;3740;50.700;7.184;2023-04-30T07:09:17;45.00;;;40.03;;
7398;SDS011;3740;50.700;7.184;2023-04-30T07:11:43;43.33;;;38.77;;
7398;SDS011;3740;50.700;7.184;2023-04-30T07:14:09;41.10;;;36.77;;
7398;SDS011;3740;50.700;7.184;2023-04-30T07:16:34;42.83;;;38.27;;
7398;SDS011;3740;50.700;7.184;2023-04-30T07:19:00;42.73;;;38.27;;
7398;SDS011;3740;50.700;7.184;2023-04-30T07:21:25;43.90;;;39.40;;
7398;SDS011;3740;50.700;7.184;2023-04-30T07:23:51;45.80;;;41.13;;
7398;SDS011;3740;50.700;7.184;2023-04-30T07:26:17;41.57;;;37.47;;
7398;SDS011;3740;50.700;7.184;2023-04-30T07:28:43;42.53;;;38.03;;
7398;SDS011;3740;50.700;7.184;2023-04-30T07:31:11;43.77;;;39.17;;
7398;SDS011;3740;50.700;7.184;2023-04-30T07:33:37;44.00;;;39.37;;
7398;SDS011;3740;50.700;7.184;2023-04-30T07:36:03;44.17;;;39.50;;
7398;SDS011;3740;50.700;7.184;2023-04-30T07:38:29;44.40;;;39.80;;
7398;SDS011;3740;50.700;7.184;2023-04-30T07:40:54;46.20;;;41.37;;
7398;SDS011;3740;50.700;7.184;2023-04-30T07:43:20;42.87;;;38.47;;
7398;SDS011;3740;50.700;7.184;2023-04-30T07:45:46;40.33;;;36.13;;
7398;SDS011;3740;50.700;7.184;2023-04-30T07:48:13;40.57;;;36.47;;
7398;SDS011;3740;50.700;7.184;2023-04-30T07:50:38;39.80;;;35.80;;
7398;SDS011;3740;50.700;7.184;2023-04-30T07:53:04;39.73;;;35.80;;
7398;SDS011;3740;50.700;7.184;2023-04-30T07:55:33;42.53;;;38.13;;
7398;SDS011;3740;50.700;7.184;2023-04-30T07:57:59;45.27;;;40.43;;
7398;SDS011;3740;50.700;7.184;2023-04-30T08:00:26;43.93;;;39.23;;
7398;SDS011;3740;50.700;7.184;2023-04-30T08:02:53;43.63;;;39.03;;
7398;SDS011;3740;50.700;7.184;2023-04-30T08:05:19;47.43;;;42.43;;
7398;SDS011;3740;50.700;7.184;2023-04-30T08:07:45;45.83;;;41.03;;
7398;SDS011;3740;50.700;7.184;2023-04-30T08:10:10;43.53;;;39.17;;
7398;SDS011;3740;50.700;7.184;2023-04-30T08:12:36;44.50;;;39.93;;
7398;SDS011;3740;50.700;7.184;2023-04-30T08:15:02;44.30;;;39.80;;
7398;SDS011;3740;50.700;7.184;2023-04-30T08:17:29;44.90;;;40.33;;
7398;SDS011;3740;50.700;7.184;2023-04-30T08:19:55;41.73;;;37.47;;
7398;SDS011;3740;50.700;7.184;2023-04-30T08:22:21;42.77;;;38.47;;
7398;SDS011;3740;50.700;7.184;2023-04-30T08:24:47;44.23;;;39.63;;
7398;SDS011;3740;50.700;7.184;2023-04-30T08:27:13;43.17;;;38.87;;
7398;SDS011;3740;50.700;7.184;2023-04-30T08:29:39;41.87;;;37.67;;
7398;SDS011;3740;50.700;7.184;2023-04-30T08:32:04;44.30;;;39.87;;
7398;SDS011;3740;50.700;7.184;2023-04-30T08:34:30;41.80;;;37.63;;
7398;SDS011;3740;50.700;7.184;2023-04-30T08:36:56;41.57;;;37.53;;
7398;SDS011;3740;50.700;7.184;2023-04-30T08:39:22;38.40;;;34.50;;
7398;SDS011;3740;50.700;7.184;2023-04-30T08:41:50;38.87;;;35.17;;
7398;SDS011;3740;50.700;7.184;2023-04-30T08:44:23;36.43;;;32.93;;
7398;SDS011;3740;50.700;7.184;2023-04-30T08:46:52;33.43;;;30.20;;
7398;SDS011;3740;50.700;7.184;2023-04-30T08:49:19;31.17;;;28.27;;
7398;SDS011;3740;50.700;7.184;2023-04-30T08:51:46;28.10;;;25.50;;
7398;SDS011;3740;50.700;7.184;2023-04-30T08:54:12;26.77;;;24.17;;
7398;SDS011;3740;50.700;7.184;2023-04-30T08:56:39;21.80;;;19.70;;
7398;SDS011;3740;50.700;7.184;2023-04-30T08:59:05;19.13;;;17.23;;
7398;SDS011;3740;50.700;7.184;2023-04-30T09:01:31;17.53;;;15.90;;
7398;SDS011;3740;50.700;7.184;2023-04-30T09:03:58;16.27;;;14.87;;
7398;SDS011;3740;50.700;7.184;2023-04-30T09:06:24;16.60;;;15.10;;
7398;SDS011;3740;50.700;7.184;2023-04-30T09:08:51;8.20;;;7.40;;
7398;SDS011;3740;50.700;7.184;2023-04-30T09:13:51;5.60;;;5.20;;
7398;SDS011;3740;50.700;7.184;2023-04-30T09:16:19;7.20;;;6.57;;
7398;SDS011;3740;50.700;7.184;2023-04-30T09:18:45;6.80;;;5.80;;
7398;SDS011;3740;50.700;7.184;2023-04-30T09:21:12;6.03;;;5.53;;
7398;SDS011;3740;50.700;7.184;2023-04-30T09:23:52;5.73;;;5.23;;
7398;SDS011;3740;50.700;7.184;2023-04-30T09:26:26;4.68;;;4.28;;
7398;SDS011;3740;50.700;7.184;2023-04-30T09:28:56;4.20;;;3.90;;
7398;SDS011;3740;50.700;7.184;2023-04-30T09:31:22;2.70;;;2.50;;
7398;SDS011;3740;50.700;7.184;2023-04-30T09:33:49;2.40;;;2.30;;
7398;SDS011;3740;50.700;7.184;2023-04-30T09:36:14;3.00;;;2.67;;
7398;SDS011;3740;50.700;7.184;2023-04-30T09:38:40;2.37;;;2.23;;
7398;SDS011;3740;50.700;7.184;2023-04-30T09:41:06;2.30;;;2.20;;
7398;SDS011;3740;50.700;7.184;2023-04-30T09:43:54;2.80;;;1.87;;
7398;SDS011;3740;50.700;7.184;2023-04-30T09:46:20;1.40;;;1.40;;
7398;SDS011;3740;50.700;7.184;2023-04-30T09:49:00;1.27;;;1.20;;
7398;SDS011;3740;50.700;7.184;2023-04-30T09:51:26;1.33;;;1.30;;
7398;SDS011;3740;50.700;7.184;2023-04-30T09:53:53;0.80;;;0.80;;
7398;SDS011;3740;50.700;7.184;2023-04-30T09:56:21;1.20;;;1.20;;
7398;SDS011;3740;50.700;7.184;2023-04-30T09:58:51;1.07;;;1.07;;
7398;SDS011;3740;50.700;7.184;2023-04-30T10:01:22;1.13;;;1.10;;
7398;SDS011;3740;50.700;7.184;2023-04-30T10:03:51;0.70;;;0.70;;
7398;SDS011;3740;50.700;7.184;2023-04-30T10:06:17;1.37;;;1.00;;
7398;SDS011;3740;50.700;7.184;2023-04-30T10:08:48;0.77;;;0.77;;
7398;SDS011;3740;50.700;7.184;2023-04-30T10:11:18;1.33;;;0.83;;
7398;SDS011;3740;50.700;7.184;2023-04-30T10:13:50;1.33;;;1.23;;
7398;SDS011;3740;50.700;7.184;2023-04-30T10:16:34;1.40;;;1.30;;
7398;SDS011;3740;50.700;7.184;2023-04-30T10:19:02;1.87;;;1.30;;
7398;SDS011;3740;50.700;7.184;2023-04-30T10:21:33;2.08;;;1.52;;
7398;SDS011;3740;50.700;7.184;2023-04-30T10:23:59;1.35;;;1.25;;
7398;SDS011;3740;50.700;7.184;2023-04-30T10:26:26;1.05;;;0.98;;
7398;SDS011;3740;50.700;7.184;2023-04-30T10:28:53;1.70;;;1.60;;
7398;SDS011;3740;50.700;7.184;2023-04-30T10:31:23;1.15;;;1.10;;
7398;SDS011;3740;50.700;7.184;2023-04-30T10:34:01;1.30;;;1.20;;
7398;SDS011;3740;50.700;7.184;2023-04-30T10:36:31;1.20;;;1.20;;
7398;SDS011;3740;50.700;7.184;2023-04-30T10:39:08;1.67;;;1.35;;
7398;SDS011;3740;50.700;7.184;2023-04-30T10:41:35;1.58;;;1.17;;
7398;SDS011;3740;50.700;7.184;2023-04-30T10:44:01;1.20;;;1.10;;
7398;SDS011;3740;50.700;7.184;2023-04-30T10:46:29;0.88;;;0.88;;
7398;SDS011;3740;50.700;7.184;2023-04-30T10:48:55;0.80;;;0.70;;
7398;SDS011;3740;50.700;7.184;2023-04-30T10:51:20;1.10;;;1.00;;
7398;SDS011;3740;50.700;7.184;2023-04-30T10:53:47;0.95;;;0.90;;
7398;SDS011;3740;50.700;7.184;2023-04-30T10:56:27;0.90;;;0.90;;
7398;SDS011;3740;50.700;7.184;2023-04-30T10:58:58;0.85;;;0.85;;
7398;SDS011;3740;50.700;7.184;2023-04-30T11:01:27;0.75;;;0.57;;
7398;SDS011;3740;50.700;7.184;2023-04-30T11:04:04;0.60;;;0.60;;
7398;SDS011;3740;50.700;7.184;2023-04-30T11:09:41;0.52;;;0.52;;
7398;SDS011;3740;50.700;7.184;2023-04-30T11:12:10;0.47;;;0.47;;
7398;SDS011;3740;50.700;7.184;2023-04-30T11:14:38;1.00;;;0.30;;
7398;SDS011;3740;50.700;7.184;2023-04-30T11:17:08;0.38;;;0.38;;
7398;SDS011;3740;50.700;7.184;2023-04-30T11:19:46;1.20;;;0.57;;
7398;SDS011;3740;50.700;7.184;2023-04-30T11:27:18;0.73;;;0.73;;
7398;SDS011;3740;50.700;7.184;2023-04-30T11:29:45;0.60;;;0.60;;
7398;SDS011;3740;50.700;7.184;2023-04-30T11:32:11;0.50;;;0.50;;
7398;SDS011;3740;50.700;7.184;2023-04-30T11:34:37;0.60;;;0.60;;
7398;SDS011;3740;50.700;7.184;2023-04-30T11:37:04;0.80;;;0.50;;
7398;SDS011;3740;50.700;7.184;2023-04-30T11:39:31;1.30;;;0.68;;
7398;SDS011;3740;50.700;7.184;2023-04-30T11:42:01;0.40;;;0.40;;
7398;SDS011;3740;50.700;7.184;2023-04-30T11:44:29;0.70;;;0.70;;
7398;SDS011;3740;50.700;7.184;2023-04-30T11:46:55;0.43;;;0.43;;
7398;SDS011;3740;50.700;7.184;2023-04-30T11:49:20;0.68;;;0.60;;
7398;SDS011;3740;50.700;7.184;2023-04-30T11:51:49;0.60;;;0.60;;
7398;SDS011;3740;50.700;7.184;2023-04-30T11:54:15;0.60;;;0.60;;
7398;SDS011;3740;50.700;7.184;2023-04-30T11:56:45;0.50;;;0.50;;
7398;SDS011;3740;50.700;7.184;2023-04-30T11:59:15;0.55;;;0.55;;
7398;SDS011;3740;50.700;7.184;2023-04-30T12:01:41;0.88;;;0.70;;
7398;SDS011;3740;50.700;7.184;2023-04-30T12:04:07;0.38;;;0.38;;
7398;SDS011;3740;50.700;7.184;2023-04-30T12:06:33;0.40;;;0.40;;
7398;SDS011;3740;50.700;7.184;2023-04-30T12:09:00;0.52;;;0.52;;
7398;SDS011;3740;50.700;7.184;2023-04-30T12:11:31;0.68;;;0.50;;
7398;SDS011;3740;50.700;7.184;2023-04-30T12:16:38;0.93;;;0.90;;
7398;SDS011;3740;50.700;7.184;2023-04-30T12:19:05;1.05;;;0.63;;
7398;SDS011;3740;50.700;7.184;2023-04-30T12:21:31;0.70;;;0.70;;
7398;SDS011;3740;50.700;7.184;2023-04-30T12:23:57;0.77;;;0.73;;
7398;SDS011;3740;50.700;7.184;2023-04-30T12:26:23;1.42;;;0.75;;
7398;SDS011;3740;50.700;7.184;2023-04-30T12:28:49;0.40;;;0.40;;
7398;SDS011;3740;50.700;7.184;2023-04-30T12:31:16;0.70;;;0.70;;
7398;SDS011;3740;50.700;7.184;2023-04-30T12:33:42;0.70;;;0.70;;
7398;SDS011;3740;50.700;7.184;2023-04-30T12:36:17;0.60;;;0.60;;
7398;SDS011;3740;50.700;7.184;2023-04-30T12:38:42;0.80;;;0.80;;
7398;SDS011;3740;50.700;7.184;2023-04-30T12:41:11;0.50;;;0.50;;
7398;SDS011;3740;50.700;7.184;2023-04-30T12:43:41;0.70;;;0.70;;
7398;SDS011;3740;50.700;7.184;2023-04-30T12:46:06;0.95;;;0.77;;
7398;SDS011;3740;50.700;7.184;2023-04-30T12:48:41;0.60;;;0.60;;
7398;SDS011;3740;50.700;7.184;2023-04-30T12:51:09;0.88;;;0.75;;
7398;SDS011;3740;50.700;7.184;2023-04-30T12:53:43;0.73;;;0.73;;
7398;SDS011;3740;50.700;7.184;2023-04-30T12:56:13;1.00;;;1.00;;
7398;SDS011;3740;50.700;7.184;2023-04-30T12:58:44;2.30;;;0.70;;
7398;SDS011;3740;50.700;7.184;2023-04-30T13:01:18;0.98;;;0.88;;
7398;SDS011;3740;50.700;7.184;2023-04-30T13:03:45;0.50;;;0.50;;
7398;SDS011;3740;50.700;7.184;2023-04-30T13:06:12;0.85;;;0.85;;
7398;SDS011;3740;50.700;7.184;2023-04-30T13:08:37;0.95;;;0.95;;
7398;SDS011;3740;50.700;7.184;2023-04-30T13:11:03;0.80;;;0.80;;
7398;SDS011;3740;50.700;7.184;2023-04-30T13:13:29;0.70;;;0.70;;
7398;SDS011;3740;50.700;7.184;2023-04-30T13:15:55;1.13;;;1.13;;
7398;SDS011;3740;50.700;7.184;2023-04-30T13:18:20;1.40;;;1.10;;
7398;SDS011;3740;50.700;7.184;2023-04-30T13:20:46;0.93;;;0.93;;
7398;SDS011;3740;50.700;7.184;2023-04-30T13:23:11;1.80;;;1.70;;
7398;SDS011;3740;50.700;7.184;2023-04-30T13:25:37;2.90;;;2.70;;
7398;SDS011;3740;50.700;7.184;2023-04-30T13:28:08;1.33;;;1.33;;
7398;SDS011;3740;50.700;7.184;2023-04-30T13:30:33;1.23;;;1.10;;
7398;SDS011;3740;50.700;7.184;2023-04-30T13:33:00;1.25;;;1.20;;
7398;SDS011;3740;50.700;7.184;2023-04-30T13:35:25;0.85;;;0.77;;
7398;SDS011;3740;50.700;7.184;2023-04-30T13:37:51;1.35;;;0.70;;
7398;SDS011;3740;50.700;7.184;2023-04-30T13:40:18;0.63;;;0.60;;
7398;SDS011;3740;50.700;7.184;2023-04-30T13:42:45;0.77;;;0.77;;
7398;SDS011;3740;50.700;7.184;2023-04-30T13:45:11;0.60;;;0.60;;
7398;SDS011;3740;50.700;7.184;2023-04-30T13:47:37;1.33;;;0.73;;
7398;SDS011;3740;50.700;7.184;2023-04-30T13:50:03;0.60;;;0.60;;
7398;SDS011;3740;50.700;7.184;2023-04-30T13:52:30;0.60;;;0.60;;
7398;SDS011;3740;50.700;7.184;2023-04-30T13:54:55;0.55;;;0.55;;
7398;SDS011;3740;50.700;7.184;2023-04-30T13:57:22;0.60;;;0.60;;
7398;SDS011;3740;50.700;7.184;2023-04-30T13:59:48;0.75;;;0.75;;
7398;SDS011;3740;50.700;7.184;2023-04-30T14:02:13;0.98;;;0.85;;
7398;SDS011;3740;50.700;7.184;2023-04-30T14:04:39;0.73;;;0.73;;
7398;SDS011;3740;50.700;7.184;2023-04-30T14:07:05;0.95;;;0.95;;
7398;SDS011;3740;50.700;7.184;2023-04-30T14:09:31;1.08;;;0.85;;
7398;SDS011;3740;50.700;7.184;2023-04-30T14:11:56;1.05;;;1.05;;
7398;SDS011;3740;50.700;7.184;2023-04-30T14:14:23;0.80;;;0.80;;
7398;SDS011;3740;50.700;7.184;2023-04-30T14:16:49;0.80;;;0.80;;
7398;SDS011;3740;50.700;7.184;2023-04-30T14:19:15;0.57;;;0.57;;
7398;SDS011;3740;50.700;7.184;2023-04-30T14:21:41;0.60;;;0.60;;
7398;SDS011;3740;50.700;7.184;2023-04-30T14:24:07;1.00;;;0.60;;
7398;SDS011;3740;50.700;7.184;2023-04-30T14:26:33;0.65;;;0.65;;
7398;SDS011;3740;50.700;7.184;2023-04-30T14:28:58;0.88;;;0.80;;
7398;SDS011;3740;50.700;7.184;2023-04-30T14:31:24;0.77;;;0.77;;
7398;SDS011;3740;50.700;7.184;2023-04-30T14:33:50;0.63;;;0.63;;
7398;SDS011;3740;50.700;7.184;2023-04-30T14:36:16;0.77;;;0.73;;
7398;SDS011;3740;50.700;7.184;2023-04-30T14:38:41;0.80;;;0.80;;
7398;SDS011;3740;50.700;7.184;2023-04-30T14:41:08;1.10;;;1.10;;
7398;SDS011;3740;50.700;7.184;2023-04-30T14:43:33;0.77;;;0.77;;
7398;SDS011;3740;50.700;7.184;2023-04-30T14:45:59;0.60;;;0.60;;
7398;SDS011;3740;50.700;7.184;2023-04-30T14:48:24;0.50;;;0.50;;
7398;SDS011;3740;50.700;7.184;2023-04-30T14:50:50;0.90;;;0.73;;
7398;SDS011;3740;50.700;7.184;2023-04-30T14:53:16;1.30;;;1.30;;
7398;SDS011;3740;50.700;7.184;2023-04-30T14:55:41;0.98;;;0.98;;
7398;SDS011;3740;50.700;7.184;2023-04-30T14:58:07;0.68;;;0.65;;
7398;SDS011;3740;50.700;7.184;2023-04-30T15:00:33;0.70;;;0.70;;
7398;SDS011;3740;50.700;7.184;2023-04-30T15:02:58;1.23;;;0.40;;
7398;SDS011;3740;50.700;7.184;2023-04-30T15:05:24;0.40;;;0.40;;
7398;SDS011;3740;50.700;7.184;2023-04-30T15:07:50;0.73;;;0.60;;
7398;SDS011;3740;50.700;7.184;2023-04-30T15:10:16;1.40;;;0.50;;
7398;SDS011;3740;50.700;7.184;2023-04-30T15:12:41;0.80;;;0.80;;
7398;SDS011;3740;50.700;7.184;2023-04-30T15:15:07;1.33;;;0.85;;
7398;SDS011;3740;50.700;7.184;2023-04-30T15:17:33;2.70;;;1.35;;
7398;SDS011;3740;50.700;7.184;2023-04-30T15:20:03;0.43;;;0.43;;
7398;SDS011;3740;50.700;7.184;2023-04-30T15:22:30;0.63;;;0.63;;
7398;SDS011;3740;50.700;7.184;2023-04-30T15:24:57;0.70;;;0.70;;
7398;SDS011;3740;50.700;7.184;2023-04-30T15:27:23;0.85;;;0.70;;
7398;SDS011;3740;50.700;7.184;2023-04-30T15:29:51;0.68;;;0.68;;
7398;SDS011;3740;50.700;7.184;2023-04-30T15:32:16;0.60;;;0.60;;